Southwest Oregon Regional Airport

Airport
ICAO code: 
KOTH
Summary
ICAO Region: 
NAM
Territory: 
Location: 
North Bend, Oregon,
Coordinates: 
Aerial View: 
43° 24' 58.791" N, 124° 14' 48.295" W
Airport BS: 
Bird Strike
Metar
Observation
KOTH 021537Z 34004KT 3/4SM -RA BR OVC009 11/10 A3031 RMK AO2 RAB16 P0000 RVRNO
Station
North Bend, North Bend Municipal Airport
Date/Time
2021-12-02 15:37:00
Wind direction
340°
Wind speed
04 kts
Lowest cloud amount
overcast
Temperature
11°C
Dew point
10°C
Humidity
93%
Weather condition
light

Description

Southwest Oregon Regional Airport, formerly North Bend Municipal Airport, is a public use airport located in North Bend, Coos County, Oregon.

Climatology

Oceanic/Dry-summer subtropical ”Mediterranean" climate (Köppen climate classification Csb) - characterized by warm, dry summers and mild winters.

Runways

Designator Length Width Surface Rops
13/31 1363 46 ASP Yes/Yes
4/22 1622 46 ASP Yes/Yes
Airport map: 
Aerial View: 

SKYbrary Partners:

Safety knowledge contributed by: